Time,TemperatureF,DewpointF,PressureIn,WindDirection,WindDirectionDegrees,WindSpeedMPH,WindSpeedGustMPH,Humidity,HourlyPrecipIn,Conditions,Clouds,dailyrainin,SolarRadiationWatts/m^2,SoftwareType,DateUTC
2013-02-10 00:09:00,36.5,26.0,30.13,ESE,110,1.0,3.0,67,0.00,,,0.00,0,weatherlink.com 1.10,2013-02-10 07:09:00,
2013-02-10 00:24:00,36.0,26.0,30.14,ESE,110,1.0,1.0,68,0.00,,,0.00,0,weatherlink.com 1.10,2013-02-10 07:24:00,
2013-02-10 00:39:00,35.2,27.0,30.14,ESE,110,0.0,1.0,71,0.00,,,0.00,0,weatherlink.com 1.10,2013-02-10 07:39:00,
2013-02-10 00:54:00,34.6,26.0,30.14,ESE,110,0.0,1.0,72,0.00,,,0.00,0,weatherlink.com 1.10,2013-02-10 07:54:00,
2013-02-10 01:09:00,34.5,27.0,30.14,ESE,110,0.0,1.0,73,0.00,,,0.00,0,weatherlink.com 1.10,2013-02-10 08:09:00,
2013-02-10 01:24:00,33.7,27.0,30.14,ESE,110,0.0,2.0,75,0.00,,,0.00,0,weatherlink.com 1.10,2013-02-10 08:24:00,
2013-02-10 01:39:00,33.1,27.0,30.14,ESE,110,0.0,2.0,77,0.00,,,0.00,0,weatherlink.com 1.10,2013-02-10 08:39:00,
2013-02-10 01:54:00,33.7,27.0,30.14,ESE,110,0.0,0.0,75,0.00,,,0.00,0,weatherlink.com 1.10,2013-02-10 08:54:00,
2013-02-10 02:09:00,33.0,26.0,30.14,ESE,110,0.0,0.0,76,0.00,,,0.00,0,weatherlink.com 1.10,2013-02-10 09:09:00,
2013-02-10 02:24:00,32.7,26.0,30.14,ESE,110,0.0,0.0,76,0.00,,,0.00,0,weatherlink.com 1.10,2013-02-10 09:24:00,
2013-02-10 02:39:00,32.7,26.0,30.14,ESE,110,0.0,0.0,76,0.00,,,0.00,0,weatherlink.com 1.10,2013-02-10 09:39:00,
2013-02-10 02:54:00,32.4,26.0,30.14,ESE,110,0.0,0.0,76,0.00,,,0.00,0,weatherlink.com 1.10,2013-02-10 09:54:00,
2013-02-10 03:09:00,32.1,25.0,30.14,ESE,110,0.0,0.0,76,0.00,,,0.00,0,weatherlink.com 1.10,2013-02-10 10:09:00,
2013-02-10 03:24:00,32.1,25.0,30.14,ESE,110,0.0,0.0,75,0.00,,,0.00,0,weatherlink.com 1.10,2013-02-10 10:24:00,
2013-02-10 03:39:00,32.1,25.0,30.14,ESE,110,0.0,0.0,75,0.00,,,0.00,0,weatherlink.com 1.10,2013-02-10 10:39:00,
2013-02-10 03:54:00,31.5,25.0,30.13,ESE,110,0.0,1.0,77,0.00,,,0.00,0,weatherlink.com 1.10,2013-02-10 10:54:00,
2013-02-10 04:09:00,31.3,25.0,30.13,ESE,110,0.0,1.0,77,0.00,,,0.00,0,weatherlink.com 1.10,2013-02-10 11:09:00,
2013-02-10 04:24:00,31.7,25.0,30.13,ESE,110,0.0,0.0,77,0.00,,,0.00,0,weatherlink.com 1.10,2013-02-10 11:24:00,
2013-02-10 04:39:00,32.8,25.0,30.13,ESE,110,0.0,2.0,74,0.00,,,0.00,0,weatherlink.com 1.10,2013-02-10 11:39:00,
2013-02-10 04:54:00,33.3,26.0,30.13,ESE,110,0.0,2.0,73,0.00,,,0.00,0,weatherlink.com 1.10,2013-02-10 11:54:00,
2013-02-10 05:09:00,32.5,25.0,30.13,ESE,110,0.0,0.0,74,0.00,,,0.00,0,weatherlink.com 1.10,2013-02-10 12:09:00,
2013-02-10 05:24:00,32.3,26.0,30.13,NNW,329,0.0,1.0,76,0.00,,,0.00,0,weatherlink.com 1.10,2013-02-10 12:24:00,
2013-02-10 05:39:00,30.8,25.0,30.13,NNW,327,1.0,1.0,79,0.00,,,0.00,0,weatherlink.com 1.10,2013-02-10 12:39:00,
2013-02-10 05:54:00,29.9,25.0,30.14,ESE,107,1.0,1.0,82,0.00,,,0.00,0,weatherlink.com 1.10,2013-02-10 12:54:00,
2013-02-10 06:09:00,30.0,25.0,30.13,NE,36,1.0,2.0,82,0.00,,,0.00,0,weatherlink.com 1.10,2013-02-10 13:09:00,
2013-02-10 06:24:00,29.6,25.0,30.14,ESE,110,0.0,1.0,82,0.00,,,0.00,0,weatherlink.com 1.10,2013-02-10 13:24:00,
2013-02-10 06:39:00,30.0,25.0,30.14,ESE,110,1.0,2.0,82,0.00,,,0.00,0,weatherlink.com 1.10,2013-02-10 13:39:00,
2013-02-10 06:54:00,30.2,25.0,30.14,ESE,110,0.0,2.0,80,0.00,,,0.00,0,weatherlink.com 1.10,2013-02-10 13:54:00,
2013-02-10 07:09:00,29.4,24.0,30.14,ESE,110,0.0,1.0,81,0.00,,,0.00,0,weatherlink.com 1.10,2013-02-10 14:09:00,
2013-02-10 07:25:00,28.8,25.0,30.15,ESE,110,0.0,0.0,84,0.00,,,0.00,12,weatherlink.com 1.10,2013-02-10 14:25:00,
2013-02-10 07:39:00,28.8,25.0,30.14,SE,128,0.0,0.0,85,0.00,,,0.00,51,weatherlink.com 1.10,2013-02-10 14:39:00,
2013-02-10 07:54:00,30.8,26.0,30.15,SE,128,0.0,0.0,83,0.00,,,0.00,104,weatherlink.com 1.10,2013-02-10 14:54:00,
2013-02-10 08:09:00,34.6,27.0,30.15,SE,128,0.0,1.0,75,0.00,,,0.00,158,weatherlink.com 1.10,2013-02-10 15:09:00,
2013-02-10 08:25:00,37.8,27.0,30.16,SE,128,0.0,0.0,66,0.00,,,0.00,232,weatherlink.com 1.10,2013-02-10 15:25:00,
2013-02-10 08:40:00,39.9,28.0,30.16,ESE,114,0.0,1.0,62,0.00,,,0.00,295,weatherlink.com 1.10,2013-02-10 15:40:00,
2013-02-10 08:59:00,42.1,29.0,30.16,ESE,114,0.0,2.0,60,0.00,,,0.00,352,weatherlink.com 1.10,2013-02-10 15:59:00,
2013-02-10 09:10:00,43.2,29.0,30.16,SSW,196,2.0,4.0,57,0.00,,,0.00,401,weatherlink.com 1.10,2013-02-10 16:10:00,
2013-02-10 09:25:00,44.5,28.0,30.16,SSW,196,0.0,3.0,53,0.00,,,0.00,452,weatherlink.com 1.10,2013-02-10 16:25:00,
2013-02-10 09:40:00,45.6,26.0,30.15,SSW,196,0.0,3.0,47,0.00,,,0.00,499,weatherlink.com 1.10,2013-02-10 16:40:00,
2013-02-10 09:55:00,47.4,27.0,30.15,SSW,196,2.0,3.0,45,0.00,,,0.00,541,weatherlink.com 1.10,2013-02-10 16:55:00,
2013-02-10 10:10:00,49.2,26.0,30.15,SSW,201,2.0,4.0,40,0.00,,,0.00,580,weatherlink.com 1.10,2013-02-10 17:10:00,
2013-02-10 10:25:00,50.1,25.0,30.15,SW,224,0.0,5.0,38,0.00,,,0.00,621,weatherlink.com 1.10,2013-02-10 17:25:00,
2013-02-10 10:40:00,50.6,25.0,30.15,WNW,303,1.0,5.0,37,0.00,,,0.00,650,weatherlink.com 1.10,2013-02-10 17:40:00,
2013-02-10 10:55:00,51.3,24.0,30.14,WNW,291,3.0,6.0,35,0.00,,,0.00,682,weatherlink.com 1.10,2013-02-10 17:55:00,
2013-02-10 11:10:00,53.0,25.0,30.14,WNW,292,1.0,4.0,34,0.00,,,0.00,712,weatherlink.com 1.10,2013-02-10 18:10:00,
2013-02-10 11:25:00,53.3,22.0,30.14,West,261,0.0,6.0,29,0.00,,,0.00,729,weatherlink.com 1.10,2013-02-10 18:25:00,
2013-02-10 11:40:00,54.6,21.0,30.14,West,265,1.0,4.0,27,0.00,,,0.00,749,weatherlink.com 1.10,2013-02-10 18:40:00,
2013-02-10 11:55:00,53.9,20.0,30.12,West,277,0.0,6.0,27,0.00,,,0.00,759,weatherlink.com 1.10,2013-02-10 18:55:00,
2013-02-10 12:11:00,54.2,21.0,30.12,NW,313,3.0,6.0,27,0.00,,,0.00,766,weatherlink.com 1.10,2013-02-10 19:11:00,
2013-02-10 12:26:00,54.4,19.0,30.11,NW,317,3.0,7.0,25,0.00,,,0.00,773,weatherlink.com 1.10,2013-02-10 19:26:00,
2013-02-10 12:41:00,55.2,20.0,30.10,WNW,286,6.0,6.0,25,0.00,,,0.00,775,weatherlink.com 1.10,2013-02-10 19:41:00,
2013-02-10 12:56:00,55.5,21.0,30.09,NW,304,3.0,8.0,26,0.00,,,0.00,768,weatherlink.com 1.10,2013-02-10 19:56:00,
2013-02-10 13:11:00,55.6,19.0,30.08,SE,124,1.0,5.0,24,0.00,,,0.00,737,weatherlink.com 1.10,2013-02-10 20:11:00,
2013-02-10 13:26:00,56.2,19.0,30.07,SSW,196,2.0,7.0,23,0.00,,,0.00,749,weatherlink.com 1.10,2013-02-10 20:26:00,
2013-02-10 13:41:00,56.7,20.0,30.07,NNW,341,5.0,9.0,24,0.00,,,0.00,731,weatherlink.com 1.10,2013-02-10 20:41:00,
2013-02-10 13:56:00,56.9,17.0,30.06,WNW,301,1.0,8.0,21,0.00,,,0.00,712,weatherlink.com 1.10,2013-02-10 20:56:00,
2013-02-10 14:11:00,56.6,16.0,30.06,WNW,302,2.0,9.0,20,0.00,,,0.00,687,weatherlink.com 1.10,2013-02-10 21:11:00,
2013-02-10 14:26:00,57.1,18.0,30.05,WSW,254,4.0,6.0,22,0.00,,,0.00,654,weatherlink.com 1.10,2013-02-10 21:26:00,
2013-02-10 14:41:00,57.9,17.0,30.06,NNW,339,5.0,8.0,20,0.00,,,0.00,621,weatherlink.com 1.10,2013-02-10 21:41:00,
2013-02-10 14:56:00,57.4,19.0,30.05,NNW,333,4.0,11.0,22,0.00,,,0.00,582,weatherlink.com 1.10,2013-02-10 21:56:00,
2013-02-10 15:11:00,57.7,18.0,30.05,West,275,6.0,9.0,21,0.00,,,0.00,543,weatherlink.com 1.10,2013-02-10 22:11:00,
2013-02-10 15:26:00,57.9,18.0,30.05,NNW,337,2.0,9.0,21,0.00,,,0.00,499,weatherlink.com 1.10,2013-02-10 22:26:00,
2013-02-10 15:41:00,58.0,20.0,30.05,NW,321,8.0,13.0,23,0.00,,,0.00,452,weatherlink.com 1.10,2013-02-10 22:41:00,
2013-02-10 15:56:00,58.0,19.0,30.04,WNW,292,7.0,12.0,22,0.00,,,0.00,404,weatherlink.com 1.10,2013-02-10 22:56:00,
2013-02-10 16:11:00,57.5,21.0,30.04,WSW,241,2.0,8.0,24,0.00,,,0.00,353,weatherlink.com 1.10,2013-02-10 23:11:00,
2013-02-10 16:26:00,58.2,20.0,30.04,WSW,250,0.0,4.0,23,0.00,,,0.00,302,weatherlink.com 1.10,2013-02-10 23:26:00,
2013-02-10 16:41:00,57.6,21.0,30.04,NNW,338,4.0,9.0,24,0.00,,,0.00,248,weatherlink.com 1.10,2013-02-10 23:41:00,
2013-02-10 16:56:00,57.4,20.0,30.04,NW,306,1.0,9.0,23,0.00,,,0.00,186,weatherlink.com 1.10,2013-02-10 23:56:00,
2013-02-10 17:11:00,57.1,18.0,30.04,NNW,340,4.0,9.0,22,0.00,,,0.00,121,weatherlink.com 1.10,2013-02-11 00:11:00,
2013-02-10 17:26:00,56.0,19.0,30.03,NW,313,4.0,7.0,24,0.00,,,0.00,62,weatherlink.com 1.10,2013-02-11 00:26:00,
2013-02-10 17:41:00,55.3,20.0,30.04,NW,320,2.0,8.0,25,0.00,,,0.00,23,weatherlink.com 1.10,2013-02-11 00:41:00,
2013-02-10 17:56:00,54.0,21.0,30.04,NNW,337,4.0,7.0,27,0.00,,,0.00,11,weatherlink.com 1.10,2013-02-11 00:56:00,
2013-02-10 18:11:00,52.2,21.0,30.04,NNW,336,2.0,5.0,30,0.00,,,0.00,0,weatherlink.com 1.10,2013-02-11 01:11:00,
2013-02-10 18:26:00,50.7,22.0,30.04,NNW,336,0.0,3.0,32,0.00,,,0.00,0,weatherlink.com 1.10,2013-02-11 01:26:00,
2013-02-10 18:57:00,48.3,22.0,30.05,NNW,336,0.0,2.0,36,0.00,,,0.00,0,weatherlink.com 1.10,2013-02-11 01:57:00,
2013-02-10 19:11:00,47.2,23.0,30.05,NNW,336,0.0,0.0,38,0.00,,,0.00,0,weatherlink.com 1.10,2013-02-11 02:11:00,
2013-02-10 19:26:00,46.0,22.0,30.06,NNW,336,0.0,0.0,39,0.00,,,0.00,0,weatherlink.com 1.10,2013-02-11 02:26:00,
2013-02-10 19:42:00,45.2,23.0,30.06,NNW,336,0.0,0.0,41,0.00,,,0.00,0,weatherlink.com 1.10,2013-02-11 02:42:00,
2013-02-10 19:56:00,44.3,23.0,30.07,NNW,336,0.0,0.0,43,0.00,,,0.00,0,weatherlink.com 1.10,2013-02-11 02:56:00,
2013-02-10 20:11:00,43.6,23.0,30.07,NNW,336,0.0,0.0,44,0.00,,,0.00,0,weatherlink.com 1.10,2013-02-11 03:11:00,
2013-02-10 20:26:00,42.9,23.0,30.07,NNW,336,0.0,0.0,45,0.00,,,0.00,0,weatherlink.com 1.10,2013-02-11 03:26:00,
2013-02-10 20:41:00,42.3,23.0,30.07,NNW,336,0.0,0.0,47,0.00,,,0.00,0,weatherlink.com 1.10,2013-02-11 03:41:00,
2013-02-10 20:56:00,41.4,23.0,30.08,NNW,336,0.0,2.0,49,0.00,,,0.00,0,weatherlink.com 1.10,2013-02-11 03:56:00,
2013-02-10 21:11:00,40.9,23.0,30.09,NNW,336,2.0,2.0,50,0.00,,,0.00,0,weatherlink.com 1.10,2013-02-11 04:11:00,
2013-02-10 21:26:00,40.6,24.0,30.09,NNW,336,0.0,2.0,51,0.00,,,0.00,0,weatherlink.com 1.10,2013-02-11 04:26:00,
2013-02-10 21:41:00,40.4,23.0,30.09,NNW,336,0.0,0.0,50,0.00,,,0.00,0,weatherlink.com 1.10,2013-02-11 04:41:00,
2013-02-10 21:56:00,40.7,23.0,30.10,NNW,336,0.0,0.0,50,0.00,,,0.00,0,weatherlink.com 1.10,2013-02-11 04:56:00,
2013-02-10 22:11:00,40.4,23.0,30.09,NNW,336,0.0,2.0,51,0.00,,,0.00,0,weatherlink.com 1.10,2013-02-11 05:11:00,
2013-02-10 22:26:00,40.5,24.0,30.09,NNW,336,0.0,0.0,53,0.00,,,0.00,0,weatherlink.com 1.10,2013-02-11 05:26:00,
2013-02-10 22:41:00,40.2,24.0,30.09,NNW,336,2.0,2.0,52,0.00,,,0.00,0,weatherlink.com 1.10,2013-02-11 05:41:00,
2013-02-10 22:56:00,40.0,23.0,30.09,NNW,336,0.0,3.0,52,0.00,,,0.00,0,weatherlink.com 1.10,2013-02-11 05:56:00,
2013-02-10 23:11:00,40.0,24.0,30.09,NNW,336,0.0,1.0,53,0.00,,,0.00,0,weatherlink.com 1.10,2013-02-11 06:11:00,
2013-02-10 23:27:00,38.9,24.0,30.09,NNW,336,0.0,0.0,55,0.00,,,0.00,0,weatherlink.com 1.10,2013-02-11 06:27:00,
2013-02-10 23:42:00,38.5,24.0,30.09,NNW,336,2.0,2.0,56,0.00,,,0.00,0,weatherlink.com 1.10,2013-02-11 06:42:00,
2013-02-10 23:56:00,39.2,24.0,30.09,NNW,337,0.0,2.0,54,0.00,,,0.00,0,weatherlink.com 1.10,2013-02-11 06:56:00,